Flight Track Log - Related Links

Times and Time Zones

All times are in EDT time to prevent confusion due to time zone crossing. See the CPZ5718 flight status page for this flight to view local times or setup timezone preferences in your user account.

Time Position Orientation Groundspeed Altitude Reporting Facility
EDT Latitude Longitude Course Direction KTS MPH feet Rate Location/Type
Sat 07:07:02 AM 42.7236 -73.8081 281° West 163 188 1,200  Level Boston Center
Sat 07:08:09 AM 42.6878 -73.8439 216° Southwest 211 243 2,800 1,832 Climbing Boston Center
Sat 07:09:49 AM 42.7472 -73.9244 315° West 241 277 6,300 2,100 Climbing Boston Center
Sat 07:10:00 AM 42.8453 -74.4051 283° West  Level FlightAware Approximate
Sat 07:10:49 AM 42.8128 -73.9994 320° Northwest 248 285 8,400  Level Boston Center
Sat 07:11:00 AM 42.8822 -74.5489 324° Northwest  Level FlightAware Approximate
Sat 07:11:49 AM 42.8806 -74.0750 321° Northwest 262 302 10,800  Level Boston Center
Sat 07:12:00 AM 42.9044 -74.7033 281° West  Level FlightAware Approximate
Sat 07:12:49 AM 42.9442 -74.1419 322° Northwest 306 352 12,100  Level Boston Center
Sat 07:13:49 AM 43.0119 -74.2119 323° Northwest 336 387 13,600 1,550 Climbing Boston Center
Sat 07:14:49 AM 43.0703 -74.3303 304° West 331 381 15,200 1,700 Climbing Boston Center
Sat 07:15:49 AM 43.0803 -74.4756 275° West 337 388 17,000 1,750 Climbing Boston Center
Sat 07:16:49 AM 43.0864 -74.6008 274° West 358 412 18,700 1,450 Climbing Boston Center
Sat 07:17:49 AM 43.0942 -74.7347 275° West 364 419 19,900 1,200 Climbing Boston Center
Sat 07:18:49 AM 43.1017 -74.8772 274° West 369 425 21,100 1,250 Climbing Boston Center
Sat 07:19:49 AM 43.1089 -75.0225 274° West 381 438 22,400 1,400 Climbing Boston Center
Sat 07:20:49 AM 43.1156 -75.1822 273° West 387 445 23,900 1,250 Climbing Boston Center
Sat 07:21:49 AM 43.1228 -75.3189 274° West 376 433 24,900 1,000 Climbing Boston Center
Sat 07:22:49 AM 43.1294 -75.4586 274° West 376 433 25,900 1,000 Climbing Boston Center
Sat 07:23:49 AM 43.1339 -75.6069 272° West 376 433 26,900 950 Climbing Boston Center
Sat 07:24:49 AM 43.1422 -75.7553 274° West 384 442 27,800 987 Climbing Boston Center
Sat 07:26:27 AM 43.1333 -75.9833 267° West 400 460 29,500 957 Climbing Toronto Center
Sat 07:27:32 AM 43.1592 -76.1569 282° West 404 465 30,400 912 Climbing Cleveland Center
Sat 07:28:32 AM 43.1506 -76.3114 266° West 404 465 31,400 1,000 Climbing Cleveland Center
Sat 07:29:32 AM 43.1392 -76.4603 264° West 404 465 32,400 950 Climbing Cleveland Center
Sat 07:30:32 AM 43.1278 -76.6117 264° West 404 465 33,300 1,050 Climbing Cleveland Center
Sat 07:31:32 AM 43.1122 -76.7719 262° West 403 464 34,500 1,050 Climbing Cleveland Center
Sat 07:32:32 AM 43.0983 -76.9208 263° West 397 457 35,400 750 Climbing Cleveland Center
Sat 07:33:32 AM 43.0861 -77.0636 263° West 392 451 36,000 300 Climbing Cleveland Center
Sat 07:34:32 AM 43.0717 -77.2122 262° West 392 451 36,000  Level Cleveland Center
Sat 07:35:32 AM 43.0575 -77.3667 263° West 397 457 36,000  Level Cleveland Center
Sat 07:36:32 AM 43.0431 -77.5264 263° West 411 473 36,000  Level Cleveland Center
Sat 07:37:32 AM 43.0283 -77.6833 263° West 416 479 36,000  Level Cleveland Center
Sat 07:38:32 AM 43.0114 -77.8403 262° West 422 486 36,000  Level Cleveland Center
Sat 07:39:32 AM 42.9961 -78.0000 263° West 427 491 36,000  Level Cleveland Center
Sat 07:40:32 AM 42.9808 -78.1597 263° West 427 491 36,000  Level Cleveland Center
Sat 07:41:32 AM 42.9633 -78.3164 261° West 427 491 36,000  Level Cleveland Center
Sat 07:42:32 AM 42.9475 -78.4786 262° West 427 491 36,000  Level Cleveland Center
Sat 07:43:32 AM 42.9358 -78.6378 264° West 427 491 36,000  Level Cleveland Center
Sat 07:44:32 AM 42.9736 -78.7928 288° West 419 482 36,000  Level Cleveland Center
Sat 07:45:27 AM 43.0167 -78.9000 299° West 430 495 36,000  Level Toronto Center
Sat 07:46:27 AM 43.0500 -79.0333 289° West 430 495 36,000  Level Toronto Center
Sat 07:47:27 AM 43.1000 -79.2000 292° West 430 495 36,000  Level Toronto Center
Sat 07:48:27 AM 43.1500 -79.3667 292° West 430 495 36,000  Level Toronto Center
Sat 07:49:27 AM 43.1833 -79.5000 289° West 430 495 36,000  Level Toronto Center
Sat 07:50:27 AM 43.2167 -79.6833 284° West 430 495 36,000  Level Toronto Center
Sat 07:51:27 AM 43.2500 -79.8167 289° West 430 495 36,000  Level Toronto Center
Sat 07:52:27 AM 43.2833 -80.0000 284° West 430 495 36,000  Level Toronto Center
Sat 07:53:27 AM 43.3167 -80.1333 289° West 430 495 36,000  Level Toronto Center
Sat 07:54:27 AM 43.3500 -80.3167 284° West 430 495 36,000  Level Toronto Center
Sat 07:55:27 AM 43.3667 -80.4667 279° West 430 495 36,000  Level Toronto Center
Sat 07:56:27 AM 43.4000 -80.6167 287° West 430 495 36,000  Level Toronto Center
Sat 07:57:27 AM 43.4333 -80.7833 285° West 430 495 36,000  Level Toronto Center
Sat 07:58:27 AM 43.4500 -80.9500 278° West 430 495 36,000  Level Toronto Center
Sat 07:59:27 AM 43.4833 -81.1000 287° West 430 495 36,000  Level Toronto Center
Sat 08:00:27 AM 43.5167 -81.2667 285° West 430 495 36,000  Level Toronto Center
Sat 08:01:27 AM 43.5500 -81.4333 285° West 440 506 36,000  Level Toronto Center
Sat 08:02:27 AM 43.5833 -81.5833 287° West 430 495 36,000  Level Toronto Center
Sat 08:03:27 AM 43.6000 -81.7500 278° West 430 495 36,000  Level Toronto Center
Sat 08:04:27 AM 43.6333 -81.9167 286° West 440 506 36,000  Level Toronto Center
Sat 08:05:27 AM 43.6500 -82.0833 278° West 430 495 36,000  Level Toronto Center
Sat 08:06:27 AM 43.6833 -82.2333 287° West 430 495 36,000  Level Toronto Center
Sat 08:07:27 AM 43.7167 -82.4000 286° West 430 495 36,000  Level Toronto Center
Sat 08:08:27 AM 43.7500 -82.5667 286° West 430 495 36,000  Level Toronto Center
Sat 08:09:19 AM 43.7714 -82.6867 284° West 434 499 36,000  Level Minneapolis Center
Sat 08:10:20 AM 43.7983 -82.8492 283° West 435 501 36,000  Level Minneapolis Center
Sat 08:11:21 AM 43.8306 -83.0444 283° West 436 502 36,000  Level Minneapolis Center
Sat 08:12:22 AM 43.8581 -83.2056 283° West 434 499 36,000  Level Minneapolis Center
Sat 08:13:23 AM 43.8842 -83.3664 283° West 432 497 36,000  Level Minneapolis Center
Sat 08:14:24 AM 43.9081 -83.5086 283° West 431 496 36,000  Level Minneapolis Center
Sat 08:15:25 AM 43.9400 -83.7067 283° West 438 504 36,000  Level Minneapolis Center
Sat 08:16:26 AM 43.9656 -83.8736 282° West 442 509 36,000  Level Minneapolis Center
Sat 08:17:27 AM 43.9917 -84.0408 282° West 444 511 36,000  Level Minneapolis Center
Sat 08:18:28 AM 44.0167 -84.2036 282° West 435 501 36,000  Level Minneapolis Center
Sat 08:19:30 AM 44.0417 -84.3661 282° West 431 496 36,000  Level Minneapolis Center
Sat 08:20:31 AM 44.0664 -84.5278 282° West 428 493 36,000  Level Minneapolis Center
Sat 08:21:32 AM 44.0903 -84.6925 281° West 433 498 36,000  Level Minneapolis Center
Sat 08:22:33 AM 44.1156 -84.8558 282° West 433 498 36,000  Level Minneapolis Center
Sat 08:23:34 AM 44.1400 -85.0189 282° West 432 497 36,000  Level Minneapolis Center
Sat 08:24:36 AM 44.1631 -85.1828 281° West 431 496 36,000  Level Minneapolis Center
Sat 08:25:37 AM 44.1867 -85.3464 281° West 431 496 36,000  Level Minneapolis Center
Sat 08:26:38 AM 44.2144 -85.5419 281° West 430 495 36,000  Level Minneapolis Center
Sat 08:27:39 AM 44.2369 -85.7061 281° West 430 495 36,000  Level Minneapolis Center
Sat 08:28:40 AM 44.2592 -85.8700 281° West 430 495 36,000  Level Minneapolis Center
Sat 08:29:42 AM 44.2822 -86.0328 281° West 426 490 36,000  Level Minneapolis Center
Sat 08:30:43 AM 44.3056 -86.1992 281° West 432 497 36,000  Level Minneapolis Center
Sat 08:31:44 AM 44.3275 -86.3653 281° West 433 498 36,000  Level Minneapolis Center
Sat 08:32:45 AM 44.3456 -86.4997 281° West 437 503 36,000  Level Minneapolis Center
Sat 08:33:47 AM 44.3706 -86.6947 280° West 426 490 36,000  Level Minneapolis Center
Sat 08:34:48 AM 44.3906 -86.8581 280° West 425 489 36,000  Level Minneapolis Center
Sat 08:35:49 AM 44.4114 -87.0200 280° West 424 488 36,000  Level Minneapolis Center
Sat 08:36:50 AM 44.4347 -87.1936 281° West 431 496 36,000  Level Minneapolis Center
Sat 08:37:52 AM 44.4528 -87.3494 279° West 430 495 36,000  Level Minneapolis Center
Sat 08:38:53 AM 44.4733 -87.5158 280° West 431 496 36,000  Level Minneapolis Center
Sat 08:39:54 AM 44.4983 -87.7161 280° West 435 501 36,000  Level Minneapolis Center
Sat 08:40:55 AM 44.5153 -87.8494 280° West 435 501 36,000  Level Minneapolis Center
Sat 08:41:57 AM 44.5350 -88.0225 279° West 433 498 36,000  Level Minneapolis Center
Sat 08:42:58 AM 44.5581 -88.2206 279° West 441 507 36,000  Level Minneapolis Center
Sat 08:43:59 AM 44.5775 -88.3894 279° West 441 507 36,000  Level Minneapolis Center
Sat 08:45:01 AM 44.5981 -88.5558 280° West 436 502 36,000  Level Minneapolis Center
Sat 08:46:02 AM 44.6164 -88.7239 279° West 437 503 36,000 -295 Level Minneapolis Center
Sat 08:47:03 AM 44.6350 -88.8917 279° West 435 501 35,400 -634 Descending Minneapolis Center
Sat 08:48:05 AM 44.6569 -89.0892 279° West 439 505 34,700 -683 Descending Minneapolis Center
Sat 08:49:06 AM 44.6756 -89.2564 279° West 436 502 34,000 -639 Descending Minneapolis Center
Sat 08:50:07 AM 44.6947 -89.4242 279° West 438 504 33,400 -634 Descending Minneapolis Center
Sat 08:51:09 AM 44.7125 -89.5953 278° West 442 509 32,700 -634 Descending Minneapolis Center
Sat 08:52:10 AM 44.7300 -89.7625 278° West 436 502 32,100 -344 Descending Minneapolis Center
Sat 08:53:11 AM 44.7472 -89.9292 278° West 434 499 32,000 -49 Descending Minneapolis Center
Sat 08:54:13 AM 44.7650 -90.0981 278° West 436 502 32,000  Level Minneapolis Center
Sat 08:55:14 AM 44.7819 -90.2656 278° West 434 499 32,000  Level Minneapolis Center
Sat 08:56:16 AM 44.8011 -90.4611 278° West 433 498 32,000  Level Minneapolis Center
Sat 08:57:17 AM 44.8178 -90.6344 278° West 432 497 32,000  Level Minneapolis Center
Sat 08:58:18 AM 44.8344 -90.8006 278° West 431 496 32,000 -49 Level Minneapolis Center
Sat 08:59:19 AM 44.8500 -90.9672 278° West 432 497 31,900 -1,268 Descending Minneapolis Center
Sat 09:00:21 AM 44.8653 -91.1350 277° West 433 498 29,400 -2,293 Descending Minneapolis Center
Sat 09:01:22 AM 44.8811 -91.3036 278° West 435 501 27,200 -2,585 Descending Minneapolis Center
Sat 09:02:24 AM 44.8953 -91.4664 277° West 426 490 24,100 -2,683 Descending Minneapolis Center
Sat 09:03:25 AM 44.9225 -91.6167 284° West 406 467 21,700 -2,508 Descending Minneapolis Center
Sat 09:04:26 AM 44.9522 -91.7636 286° West 392 451 19,000 -2,829 Descending Minneapolis Center
Sat 09:05:28 AM 44.9831 -91.9322 285° West 373 429 15,900 -2,732 Descending Minneapolis Center
Sat 09:06:29 AM 45.0097 -92.0694 285° West 361 415 13,400 -2,361 Descending Minneapolis Center
Sat 09:07:30 AM 45.0325 -92.2014 284° West 350 403 11,100 -1,180 Descending Minneapolis Center
Sat 09:08:31 AM 45.0469 -92.3000 282° West 331 381 11,000 -98 Descending Minneapolis Center
Sat 09:09:33 AM 45.0183 -92.4508 255° West 331 381 10,900 -488 Descending Minneapolis Center
Sat 09:10:34 AM 44.9669 -92.5522 234° Southwest 319 367 10,000 -1,220 Descending Minneapolis Center
Sat 09:11:36 AM 44.9164 -92.6503 234° Southwest 311 358 8,400 -1,512 Descending Minneapolis Center
Sat 09:12:37 AM 44.8669 -92.7467 234° Southwest 306 352 6,900 -1,610 Descending Minneapolis Center
Sat 09:13:39 AM 44.8183 -92.8417 234° Southwest 300 345 5,100 -1,415 Descending Minneapolis Center
Sat 09:14:40 AM 44.7981 -92.9617 257° West 269 310 4,000 -878 Descending Minneapolis Center
Sat 09:15:42 AM 44.8150 -93.0406 287° West 212 244 3,300 -677 Descending Minneapolis Center

Login

Don't have an account? Register now (free) for customized features, flight alerts, and more!